This is the latest recevied weather packets stored in our database for station/object WX4HP-13. If no packets are shown the sender has not sent any weather packets the latest 10 day(s).
| Time | Temp. | Humidity | Pressure | Rain* | Wind** | Luminosity | Snow |
|---|---|---|---|---|---|---|---|
| 1777235996 | 26.67° C | 46% | 1010.5 hPa | 0 mm | - | - | - |
| 1777235695 | 27.22° C | 44% | 1010.4 hPa | 0 mm | - | - | - |
| 1777235395 | 26.11° C | 47% | 1010.5 hPa | 0 mm | - | - | - |
| 1777235095 | 25.56° C | 47% | 1010.7 hPa | 0 mm | - | - | - |
| 1777234796 | 26.11° C | 47% | 1010.8 hPa | 0 mm | - | - | - |
| 1777234495 | 26.11° C | 47% | 1010.8 hPa | 0 mm | - | - | - |
| 1777234195 | 25.56° C | 46% | 1010.9 hPa | 0 mm | - | - | - |
| 1777233895 | 25.56° C | 48% | 1011.1 hPa | 0 mm | - | - | - |
| 1777233596 | 25.56° C | 49% | 1011.2 hPa | 0 mm | - | - | - |
| 1777233296 | 25.56° C | 48% | 1011.2 hPa | 0 mm | - | - | - |
| 1777232995 | 26.11° C | 48% | 1011.3 hPa | 0 mm | - | - | - |
| 1777232695 | 26.67° C | 48% | 1011.2 hPa | 0 mm | - | - | - |
| 1777232449 | 26.11° C | 46% | 1011.3 hPa | 0 mm | - | - | - |
| 1777232396 | 26.11° C | 46% | 1011.3 hPa | 0 mm | - | - | - |
| 1777232095 | 25.56° C | 49% | 1011.5 hPa | 0 mm | - | - | - |
| 1777231795 | 25° C | 50% | 1011.6 hPa | 0 mm | - | - | - |
| 1777231496 | 24.44° C | 52% | 1011.8 hPa | 0 mm | - | - | - |
| 1777231196 | 25° C | 52% | 1011.8 hPa | 0 mm | - | - | - |
| 1777230895 | 25.56° C | 50% | 1011.6 hPa | 0 mm | - | - | - |
| 1777230594 | 25.56° C | 52% | 1011.7 hPa | 0 mm | - | - | - |
| 1777230295 | 25° C | 52% | 1011.7 hPa | 0 mm | - | - | - |
| 1777230107 | 24.44° C | 53% | 1011.7 hPa | 0 mm | - | - | - |
| 1777229997 | 24.44° C | 53% | 1011.7 hPa | 0 mm | - | - | - |
| 1777229697 | 25° C | 53% | 1011.6 hPa | 0 mm | - | - | - |
| 1777229394 | 25.56° C | 53% | 1011.7 hPa | 0 mm | - | - | - |
* Rain latest hour (hover to see other rain measurements)
** Current wind speed in m/s (hover to see current wind gust speed)